sensor_id;sensor_type;location;lat;lon;timestamp;P1;durP1;ratioP1;P2;durP2;ratioP2
55067;SDS011;40965;52.368;9.712;2023-05-10T00:00:16;1.92;;;1.55;;
55067;SDS011;40965;52.368;9.712;2023-05-10T00:02:42;2.63;;;2.05;;
55067;SDS011;40965;52.368;9.712;2023-05-10T00:05:09;2.28;;;2.00;;
55067;SDS011;40965;52.368;9.712;2023-05-10T00:07:35;2.40;;;2.20;;
55067;SDS011;40965;52.368;9.712;2023-05-10T00:10:02;3.33;;;1.83;;
55067;SDS011;40965;52.368;9.712;2023-05-10T00:12:28;1.75;;;1.65;;
55067;SDS011;40965;52.368;9.712;2023-05-10T00:14:55;2.38;;;1.80;;
55067;SDS011;40965;52.368;9.712;2023-05-10T00:17:21;2.28;;;1.95;;
55067;SDS011;40965;52.368;9.712;2023-05-10T00:19:48;2.45;;;2.25;;
55067;SDS011;40965;52.368;9.712;2023-05-10T00:22:14;1.80;;;1.45;;
55067;SDS011;40965;52.368;9.712;2023-05-10T00:24:41;1.75;;;1.63;;
55067;SDS011;40965;52.368;9.712;2023-05-10T00:27:07;4.22;;;2.17;;
55067;SDS011;40965;52.368;9.712;2023-05-10T00:29:33;2.67;;;1.40;;
55067;SDS011;40965;52.368;9.712;2023-05-10T00:32:00;4.28;;;1.95;;
55067;SDS011;40965;52.368;9.712;2023-05-10T00:34:27;1.63;;;1.52;;
55067;SDS011;40965;52.368;9.712;2023-05-10T00:36:53;3.28;;;1.35;;
55067;SDS011;40965;52.368;9.712;2023-05-10T00:39:19;2.22;;;1.80;;
55067;SDS011;40965;52.368;9.712;2023-05-10T00:41:46;2.58;;;2.38;;
55067;SDS011;40965;52.368;9.712;2023-05-10T00:44:12;4.60;;;2.47;;
55067;SDS011;40965;52.368;9.712;2023-05-10T00:46:39;5.95;;;2.10;;
55067;SDS011;40965;52.368;9.712;2023-05-10T00:49:06;2.70;;;2.05;;
55067;SDS011;40965;52.368;9.712;2023-05-10T00:51:32;3.78;;;1.95;;
55067;SDS011;40965;52.368;9.712;2023-05-10T00:53:59;2.17;;;1.80;;
55067;SDS011;40965;52.368;9.712;2023-05-10T00:56:25;1.92;;;1.70;;
55067;SDS011;40965;52.368;9.712;2023-05-10T00:58:54;2.83;;;1.88;;
55067;SDS011;40965;52.368;9.712;2023-05-10T01:01:22;2.75;;;2.30;;
55067;SDS011;40965;52.368;9.712;2023-05-10T01:03:48;2.50;;;1.90;;
55067;SDS011;40965;52.368;9.712;2023-05-10T01:06:15;6.00;;;2.13;;
55067;SDS011;40965;52.368;9.712;2023-05-10T01:08:42;2.25;;;1.98;;
55067;SDS011;40965;52.368;9.712;2023-05-10T01:11:08;2.67;;;2.20;;
55067;SDS011;40965;52.368;9.712;2023-05-10T01:13:39;2.55;;;2.35;;
55067;SDS011;40965;52.368;9.712;2023-05-10T01:16:08;5.18;;;2.72;;
55067;SDS011;40965;52.368;9.712;2023-05-10T01:18:35;2.45;;;1.98;;
55067;SDS011;40965;52.368;9.712;2023-05-10T01:36:00;2.63;;;2.43;;
55067;SDS011;40965;52.368;9.712;2023-05-10T01:38:41;6.43;;;2.50;;
55067;SDS011;40965;52.368;9.712;2023-05-10T01:41:19;2.60;;;1.95;;
55067;SDS011;40965;52.368;9.712;2023-05-10T01:47:23;4.75;;;2.42;;
55067;SDS011;40965;52.368;9.712;2023-05-10T01:49:58;2.55;;;2.35;;
55067;SDS011;40965;52.368;9.712;2023-05-10T01:52:30;3.25;;;2.95;;
55067;SDS011;40965;52.368;9.712;2023-05-10T01:55:07;2.85;;;2.63;;
55067;SDS011;40965;52.368;9.712;2023-05-10T01:57:37;3.92;;;2.40;;
55067;SDS011;40965;52.368;9.712;2023-05-10T02:00:07;3.38;;;2.95;;
55067;SDS011;40965;52.368;9.712;2023-05-10T02:02:36;4.03;;;2.40;;
55067;SDS011;40965;52.368;9.712;2023-05-10T02:05:07;3.53;;;2.72;;
55067;SDS011;40965;52.368;9.712;2023-05-10T02:07:35;5.05;;;2.85;;
55067;SDS011;40965;52.368;9.712;2023-05-10T02:10:04;4.55;;;3.08;;
55067;SDS011;40965;52.368;9.712;2023-05-10T02:12:44;8.60;;;2.70;;
55067;SDS011;40965;52.368;9.712;2023-05-10T02:15:15;3.70;;;2.42;;
55067;SDS011;40965;52.368;9.712;2023-05-10T02:17:46;2.58;;;2.30;;
55067;SDS011;40965;52.368;9.712;2023-05-10T02:20:14;3.90;;;3.03;;
55067;SDS011;40965;52.368;9.712;2023-05-10T02:22:43;3.55;;;2.67;;
55067;SDS011;40965;52.368;9.712;2023-05-10T02:25:13;3.08;;;2.88;;
55067;SDS011;40965;52.368;9.712;2023-05-10T02:27:40;3.53;;;3.22;;
55067;SDS011;40965;52.368;9.712;2023-05-10T02:30:09;3.40;;;3.10;;
55067;SDS011;40965;52.368;9.712;2023-05-10T02:32:37;3.53;;;3.22;;
55067;SDS011;40965;52.368;9.712;2023-05-10T02:35:04;3.50;;;3.20;;
55067;SDS011;40965;52.368;9.712;2023-05-10T02:37:34;3.90;;;3.47;;
55067;SDS011;40965;52.368;9.712;2023-05-10T02:40:03;4.93;;;3.17;;
55067;SDS011;40965;52.368;9.712;2023-05-10T02:42:32;3.53;;;3.22;;
55067;SDS011;40965;52.368;9.712;2023-05-10T02:45:04;5.03;;;3.20;;
55067;SDS011;40965;52.368;9.712;2023-05-10T02:47:37;4.00;;;3.42;;
55067;SDS011;40965;52.368;9.712;2023-05-10T02:50:04;9.25;;;3.85;;
55067;SDS011;40965;52.368;9.712;2023-05-10T02:52:36;4.25;;;3.45;;
55067;SDS011;40965;52.368;9.712;2023-05-10T02:55:07;3.80;;;3.42;;
55067;SDS011;40965;52.368;9.712;2023-05-10T02:57:38;5.25;;;3.80;;
55067;SDS011;40965;52.368;9.712;2023-05-10T03:00:11;6.22;;;3.65;;
55067;SDS011;40965;52.368;9.712;2023-05-10T03:02:37;5.82;;;3.53;;
55067;SDS011;40965;52.368;9.712;2023-05-10T03:05:04;4.30;;;3.38;;
55067;SDS011;40965;52.368;9.712;2023-05-10T03:07:31;4.03;;;3.45;;
55067;SDS011;40965;52.368;9.712;2023-05-10T03:09:58;3.92;;;3.63;;
55067;SDS011;40965;52.368;9.712;2023-05-10T03:12:41;5.45;;;3.70;;
55067;SDS011;40965;52.368;9.712;2023-05-10T03:21:10;4.63;;;3.10;;
55067;SDS011;40965;52.368;9.712;2023-05-10T03:26:14;4.07;;;3.53;;
55067;SDS011;40965;52.368;9.712;2023-05-10T03:28:47;7.28;;;3.45;;
55067;SDS011;40965;52.368;9.712;2023-05-10T03:31:14;4.53;;;3.78;;
55067;SDS011;40965;52.368;9.712;2023-05-10T03:33:45;6.13;;;4.47;;
55067;SDS011;40965;52.368;9.712;2023-05-10T03:36:15;5.95;;;4.68;;
55067;SDS011;40965;52.368;9.712;2023-05-10T03:38:42;5.38;;;4.68;;
55067;SDS011;40965;52.368;9.712;2023-05-10T03:41:09;5.40;;;4.40;;
55067;SDS011;40965;52.368;9.712;2023-05-10T03:43:35;8.68;;;4.32;;
55067;SDS011;40965;52.368;9.712;2023-05-10T03:46:05;4.10;;;3.42;;
55067;SDS011;40965;52.368;9.712;2023-05-10T03:48:32;4.78;;;4.30;;
55067;SDS011;40965;52.368;9.712;2023-05-10T03:50:59;12.18;;;4.43;;
55067;SDS011;40965;52.368;9.712;2023-05-10T03:53:26;8.55;;;7.05;;
55067;SDS011;40965;52.368;9.712;2023-05-10T03:55:55;6.50;;;4.72;;
55067;SDS011;40965;52.368;9.712;2023-05-10T03:58:21;4.72;;;4.25;;
55067;SDS011;40965;52.368;9.712;2023-05-10T04:00:48;4.35;;;3.95;;
55067;SDS011;40965;52.368;9.712;2023-05-10T04:03:15;8.63;;;4.18;;
55067;SDS011;40965;52.368;9.712;2023-05-10T04:05:42;6.75;;;5.03;;
55067;SDS011;40965;52.368;9.712;2023-05-10T04:08:09;5.55;;;4.35;;
55067;SDS011;40965;52.368;9.712;2023-05-10T04:10:35;7.25;;;4.70;;
55067;SDS011;40965;52.368;9.712;2023-05-10T04:13:02;6.97;;;4.57;;
55067;SDS011;40965;52.368;9.712;2023-05-10T04:15:28;5.85;;;4.28;;
55067;SDS011;40965;52.368;9.712;2023-05-10T04:17:55;5.00;;;4.35;;
55067;SDS011;40965;52.368;9.712;2023-05-10T04:20:21;6.38;;;4.35;;
55067;SDS011;40965;52.368;9.712;2023-05-10T04:22:48;5.80;;;4.47;;
55067;SDS011;40965;52.368;9.712;2023-05-10T04:25:14;5.40;;;4.40;;
55067;SDS011;40965;52.368;9.712;2023-05-10T04:27:42;7.00;;;4.75;;
55067;SDS011;40965;52.368;9.712;2023-05-10T04:30:10;5.03;;;4.32;;
55067;SDS011;40965;52.368;9.712;2023-05-10T04:32:37;5.68;;;5.18;;
55067;SDS011;40965;52.368;9.712;2023-05-10T04:35:04;6.28;;;5.28;;
55067;SDS011;40965;52.368;9.712;2023-05-10T04:37:31;6.05;;;5.55;;
55067;SDS011;40965;52.368;9.712;2023-05-10T04:39:58;5.72;;;4.55;;
55067;SDS011;40965;52.368;9.712;2023-05-10T04:42:25;5.55;;;5.05;;
55067;SDS011;40965;52.368;9.712;2023-05-10T04:44:52;7.55;;;5.50;;
55067;SDS011;40965;52.368;9.712;2023-05-10T04:47:19;7.68;;;5.72;;
55067;SDS011;40965;52.368;9.712;2023-05-10T04:49:45;6.90;;;5.63;;
55067;SDS011;40965;52.368;9.712;2023-05-10T04:52:12;5.30;;;4.85;;
55067;SDS011;40965;52.368;9.712;2023-05-10T04:54:40;5.30;;;4.75;;
55067;SDS011;40965;52.368;9.712;2023-05-10T04:57:09;6.60;;;5.10;;
55067;SDS011;40965;52.368;9.712;2023-05-10T04:59:36;6.38;;;4.97;;
55067;SDS011;40965;52.368;9.712;2023-05-10T05:02:03;5.03;;;4.53;;
55067;SDS011;40965;52.368;9.712;2023-05-10T05:04:31;4.78;;;4.40;;
55067;SDS011;40965;52.368;9.712;2023-05-10T05:06:58;9.13;;;4.88;;
55067;SDS011;40965;52.368;9.712;2023-05-10T05:09:25;4.93;;;4.53;;
55067;SDS011;40965;52.368;9.712;2023-05-10T05:11:51;7.07;;;5.40;;
55067;SDS011;40965;52.368;9.712;2023-05-10T05:14:18;8.07;;;6.20;;
55067;SDS011;40965;52.368;9.712;2023-05-10T05:16:45;5.65;;;5.03;;
55067;SDS011;40965;52.368;9.712;2023-05-10T05:19:12;10.25;;;5.85;;
55067;SDS011;40965;52.368;9.712;2023-05-10T05:21:39;8.18;;;5.60;;
55067;SDS011;40965;52.368;9.712;2023-05-10T05:24:06;6.43;;;5.82;;
55067;SDS011;40965;52.368;9.712;2023-05-10T05:26:33;7.32;;;5.40;;
55067;SDS011;40965;52.368;9.712;2023-05-10T05:29:00;8.23;;;6.60;;
55067;SDS011;40965;52.368;9.712;2023-05-10T05:31:26;11.13;;;6.57;;
55067;SDS011;40965;52.368;9.712;2023-05-10T05:33:53;6.53;;;5.82;;
55067;SDS011;40965;52.368;9.712;2023-05-10T05:36:20;7.78;;;6.50;;
55067;SDS011;40965;52.368;9.712;2023-05-10T05:38:47;6.13;;;5.63;;
55067;SDS011;40965;52.368;9.712;2023-05-10T05:41:13;7.10;;;5.90;;
55067;SDS011;40965;52.368;9.712;2023-05-10T05:43:40;8.27;;;6.05;;
55067;SDS011;40965;52.368;9.712;2023-05-10T05:46:07;7.38;;;5.95;;
55067;SDS011;40965;52.368;9.712;2023-05-10T05:48:33;8.00;;;5.95;;
55067;SDS011;40965;52.368;9.712;2023-05-10T05:51:00;7.30;;;6.38;;
55067;SDS011;40965;52.368;9.712;2023-05-10T05:53:26;8.15;;;6.03;;
55067;SDS011;40965;52.368;9.712;2023-05-10T05:55:53;10.60;;;6.22;;
55067;SDS011;40965;52.368;9.712;2023-05-10T05:58:22;7.78;;;6.63;;
55067;SDS011;40965;52.368;9.712;2023-05-10T06:00:49;10.27;;;7.45;;
55067;SDS011;40965;52.368;9.712;2023-05-10T06:03:17;9.65;;;6.90;;
55067;SDS011;40965;52.368;9.712;2023-05-10T06:05:44;7.15;;;6.45;;
55067;SDS011;40965;52.368;9.712;2023-05-10T06:08:11;7.95;;;6.10;;
55067;SDS011;40965;52.368;9.712;2023-05-10T06:10:37;5.82;;;5.22;;
55067;SDS011;40965;52.368;9.712;2023-05-10T06:13:04;6.82;;;6.05;;
55067;SDS011;40965;52.368;9.712;2023-05-10T06:15:31;7.65;;;6.00;;
55067;SDS011;40965;52.368;9.712;2023-05-10T06:17:58;6.85;;;6.15;;
55067;SDS011;40965;52.368;9.712;2023-05-10T06:20:24;6.00;;;4.95;;
55067;SDS011;40965;52.368;9.712;2023-05-10T06:22:51;6.05;;;5.30;;
55067;SDS011;40965;52.368;9.712;2023-05-10T06:25:17;6.45;;;5.82;;
55067;SDS011;40965;52.368;9.712;2023-05-10T06:27:44;7.47;;;6.45;;
55067;SDS011;40965;52.368;9.712;2023-05-10T06:30:10;6.88;;;5.90;;
55067;SDS011;40965;52.368;9.712;2023-05-10T06:32:38;8.05;;;6.00;;
55067;SDS011;40965;52.368;9.712;2023-05-10T06:35:04;8.38;;;6.65;;
55067;SDS011;40965;52.368;9.712;2023-05-10T06:37:32;8.50;;;7.75;;
55067;SDS011;40965;52.368;9.712;2023-05-10T06:39:59;7.72;;;6.80;;
55067;SDS011;40965;52.368;9.712;2023-05-10T06:42:25;8.65;;;7.22;;
55067;SDS011;40965;52.368;9.712;2023-05-10T06:44:52;7.25;;;6.50;;
55067;SDS011;40965;52.368;9.712;2023-05-10T06:47:18;11.52;;;7.75;;
55067;SDS011;40965;52.368;9.712;2023-05-10T06:49:45;7.75;;;5.88;;
55067;SDS011;40965;52.368;9.712;2023-05-10T06:52:11;9.98;;;7.15;;
55067;SDS011;40965;52.368;9.712;2023-05-10T06:54:38;9.88;;;7.93;;
55067;SDS011;40965;52.368;9.712;2023-05-10T06:57:04;8.52;;;6.32;;
55067;SDS011;40965;52.368;9.712;2023-05-10T06:59:31;6.85;;;6.07;;
55067;SDS011;40965;52.368;9.712;2023-05-10T07:01:58;8.88;;;5.97;;
55067;SDS011;40965;52.368;9.712;2023-05-10T07:04:24;11.43;;;6.53;;
55067;SDS011;40965;52.368;9.712;2023-05-10T07:06:50;7.38;;;6.60;;
55067;SDS011;40965;52.368;9.712;2023-05-10T07:09:17;7.13;;;6.43;;
55067;SDS011;40965;52.368;9.712;2023-05-10T07:11:44;7.05;;;6.32;;
55067;SDS011;40965;52.368;9.712;2023-05-10T07:14:10;10.70;;;7.10;;
55067;SDS011;40965;52.368;9.712;2023-05-10T07:16:37;8.40;;;6.22;;
55067;SDS011;40965;52.368;9.712;2023-05-10T07:19:03;8.82;;;6.50;;
55067;SDS011;40965;52.368;9.712;2023-05-10T07:21:31;9.48;;;8.13;;
55067;SDS011;40965;52.368;9.712;2023-05-10T07:23:57;8.90;;;7.47;;
55067;SDS011;40965;52.368;9.712;2023-05-10T07:26:25;7.10;;;6.43;;
55067;SDS011;40965;52.368;9.712;2023-05-10T07:28:51;6.53;;;5.82;;
55067;SDS011;40965;52.368;9.712;2023-05-10T07:31:18;8.50;;;6.07;;
55067;SDS011;40965;52.368;9.712;2023-05-10T07:33:44;7.75;;;6.35;;
55067;SDS011;40965;52.368;9.712;2023-05-10T07:36:11;10.50;;;7.60;;
55067;SDS011;40965;52.368;9.712;2023-05-10T07:38:37;10.05;;;7.65;;
55067;SDS011;40965;52.368;9.712;2023-05-10T07:41:04;8.20;;;6.78;;
55067;SDS011;40965;52.368;9.712;2023-05-10T07:43:31;12.43;;;7.45;;
55067;SDS011;40965;52.368;9.712;2023-05-10T07:45:57;7.03;;;6.32;;
55067;SDS011;40965;52.368;9.712;2023-05-10T07:48:24;6.45;;;5.85;;
55067;SDS011;40965;52.368;9.712;2023-05-10T07:50:52;6.53;;;6.00;;
55067;SDS011;40965;52.368;9.712;2023-05-10T07:53:18;6.13;;;5.53;;
55067;SDS011;40965;52.368;9.712;2023-05-10T07:55:49;7.50;;;6.65;;
55067;SDS011;40965;52.368;9.712;2023-05-10T07:58:17;6.30;;;5.53;;
55067;SDS011;40965;52.368;9.712;2023-05-10T08:00:44;6.63;;;5.45;;
55067;SDS011;40965;52.368;9.712;2023-05-10T08:03:10;5.55;;;4.88;;
55067;SDS011;40965;52.368;9.712;2023-05-10T08:05:37;5.45;;;4.95;;
55067;SDS011;40965;52.368;9.712;2023-05-10T08:08:03;4.68;;;4.07;;
55067;SDS011;40965;52.368;9.712;2023-05-10T08:10:30;3.78;;;3.45;;
55067;SDS011;40965;52.368;9.712;2023-05-10T08:12:56;3.80;;;3.50;;
55067;SDS011;40965;52.368;9.712;2023-05-10T08:15:24;1.63;;;1.52;;
55067;SDS011;40965;52.368;9.712;2023-05-10T08:17:51;2.15;;;1.60;;
55067;SDS011;40965;52.368;9.712;2023-05-10T08:20:18;2.92;;;1.20;;
55067;SDS011;40965;52.368;9.712;2023-05-10T08:22:45;1.70;;;1.58;;
55067;SDS011;40965;52.368;9.712;2023-05-10T08:25:12;1.10;;;1.10;;
55067;SDS011;40965;52.368;9.712;2023-05-10T08:27:39;1.23;;;1.13;;
55067;SDS011;40965;52.368;9.712;2023-05-10T08:30:06;2.58;;;1.77;;
55067;SDS011;40965;52.368;9.712;2023-05-10T08:32:33;1.35;;;1.25;;
55067;SDS011;40965;52.368;9.712;2023-05-10T08:35:00;3.65;;;1.40;;
55067;SDS011;40965;52.368;9.712;2023-05-10T08:37:29;1.73;;;1.08;;
55067;SDS011;40965;52.368;9.712;2023-05-10T08:39:57;1.35;;;1.35;;
55067;SDS011;40965;52.368;9.712;2023-05-10T08:42:23;2.00;;;1.55;;
55067;SDS011;40965;52.368;9.712;2023-05-10T08:44:55;2.33;;;2.13;;
55067;SDS011;40965;52.368;9.712;2023-05-10T08:47:23;1.42;;;1.42;;
55067;SDS011;40965;52.368;9.712;2023-05-10T08:49:51;2.28;;;1.60;;
55067;SDS011;40965;52.368;9.712;2023-05-10T08:52:18;1.70;;;1.60;;
55067;SDS011;40965;52.368;9.712;2023-05-10T08:54:45;1.80;;;1.70;;
55067;SDS011;40965;52.368;9.712;2023-05-10T08:57:11;3.13;;;2.10;;
55067;SDS011;40965;52.368;9.712;2023-05-10T08:59:38;1.50;;;1.40;;
55067;SDS011;40965;52.368;9.712;2023-05-10T09:02:05;2.15;;;2.05;;
55067;SDS011;40965;52.368;9.712;2023-05-10T09:04:32;2.08;;;1.98;;
55067;SDS011;40965;52.368;9.712;2023-05-10T09:06:59;1.80;;;1.70;;
55067;SDS011;40965;52.368;9.712;2023-05-10T09:09:26;2.03;;;1.92;;
55067;SDS011;40965;52.368;9.712;2023-05-10T09:11:53;1.90;;;1.80;;
55067;SDS011;40965;52.368;9.712;2023-05-10T09:14:20;1.52;;;1.50;;
55067;SDS011;40965;52.368;9.712;2023-05-10T09:16:48;2.10;;;1.92;;
55067;SDS011;40965;52.368;9.712;2023-05-10T09:19:14;1.75;;;1.65;;
55067;SDS011;40965;52.368;9.712;2023-05-10T09:21:41;1.75;;;1.65;;
55067;SDS011;40965;52.368;9.712;2023-05-10T09:24:07;2.95;;;2.45;;
55067;SDS011;40965;52.368;9.712;2023-05-10T09:26:35;2.45;;;1.90;;
55067;SDS011;40965;52.368;9.712;2023-05-10T09:29:13;2.47;;;2.28;;
55067;SDS011;40965;52.368;9.712;2023-05-10T09:31:49;2.00;;;1.90;;
55067;SDS011;40965;52.368;9.712;2023-05-10T09:34:28;2.78;;;2.65;;
55067;SDS011;40965;52.368;9.712;2023-05-10T09:36:59;2.63;;;2.42;;
55067;SDS011;40965;52.368;9.712;2023-05-10T09:39:32;2.63;;;2.42;;
55067;SDS011;40965;52.368;9.712;2023-05-10T09:41:59;2.38;;;2.17;;
55067;SDS011;40965;52.368;9.712;2023-05-10T09:44:29;4.38;;;2.20;;
55067;SDS011;40965;52.368;9.712;2023-05-10T09:47:00;4.22;;;2.65;;
55067;SDS011;40965;52.368;9.712;2023-05-10T09:49:27;2.22;;;2.13;;
55067;SDS011;40965;52.368;9.712;2023-05-10T09:51:59;1.40;;;1.40;;
55067;SDS011;40965;52.368;9.712;2023-05-10T09:54:30;1.73;;;1.67;;
55067;SDS011;40965;52.368;9.712;2023-05-10T09:56:58;2.28;;;2.08;;
55067;SDS011;40965;52.368;9.712;2023-05-10T09:59:27;2.05;;;1.95;;
55067;SDS011;40965;52.368;9.712;2023-05-10T10:01:59;2.60;;;2.40;;
55067;SDS011;40965;52.368;9.712;2023-05-10T10:04:26;1.70;;;1.60;;
55067;SDS011;40965;52.368;9.712;2023-05-10T10:07:01;2.38;;;2.15;;
55067;SDS011;40965;52.368;9.712;2023-05-10T10:09:30;2.15;;;2.05;;
55067;SDS011;40965;52.368;9.712;2023-05-10T10:12:01;3.60;;;3.30;;
55067;SDS011;40965;52.368;9.712;2023-05-10T10:14:29;2.50;;;2.40;;
55067;SDS011;40965;52.368;9.712;2023-05-10T10:16:55;2.20;;;2.00;;
55067;SDS011;40965;52.368;9.712;2023-05-10T10:19:22;2.63;;;2.42;;
55067;SDS011;40965;52.368;9.712;2023-05-10T10:21:49;3.65;;;2.42;;
55067;SDS011;40965;52.368;9.712;2023-05-10T10:24:16;2.67;;;2.47;;
55067;SDS011;40965;52.368;9.712;2023-05-10T10:26:42;3.13;;;2.75;;
55067;SDS011;40965;52.368;9.712;2023-05-10T10:32:06;2.85;;;2.13;;
55067;SDS011;40965;52.368;9.712;2023-05-10T10:34:48;2.67;;;2.58;;
55067;SDS011;40965;52.368;9.712;2023-05-10T10:37:15;2.38;;;2.17;;
55067;SDS011;40965;52.368;9.712;2023-05-10T10:39:44;2.28;;;2.08;;
55067;SDS011;40965;52.368;9.712;2023-05-10T10:42:10;1.88;;;1.75;;
55067;SDS011;40965;52.368;9.712;2023-05-10T10:44:37;2.25;;;1.83;;
55067;SDS011;40965;52.368;9.712;2023-05-10T10:52:32;2.22;;;2.08;;
55067;SDS011;40965;52.368;9.712;2023-05-10T10:57:44;2.08;;;1.98;;
55067;SDS011;40965;52.368;9.712;2023-05-10T11:03:05;2.03;;;1.83;;
55067;SDS011;40965;52.368;9.712;2023-05-10T11:05:37;3.42;;;2.30;;
55067;SDS011;40965;52.368;9.712;2023-05-10T11:08:07;2.88;;;2.05;;
55067;SDS011;40965;52.368;9.712;2023-05-10T11:10:48;2.50;;;2.30;;
55067;SDS011;40965;52.368;9.712;2023-05-10T11:13:32;2.38;;;2.28;;
55067;SDS011;40965;52.368;9.712;2023-05-10T11:16:41;2.75;;;2.53;;
55067;SDS011;40965;52.368;9.712;2023-05-10T11:19:10;2.75;;;2.55;;
55067;SDS011;40965;52.368;9.712;2023-05-10T11:21:48;4.20;;;2.60;;
55067;SDS011;40965;52.368;9.712;2023-05-10T11:24:17;2.20;;;1.88;;
55067;SDS011;40965;52.368;9.712;2023-05-10T11:26:49;2.88;;;2.47;;
55067;SDS011;40965;52.368;9.712;2023-05-10T11:29:17;2.70;;;2.50;;
55067;SDS011;40965;52.368;9.712;2023-05-10T11:31:44;2.25;;;2.15;;
55067;SDS011;40965;52.368;9.712;2023-05-10T11:34:22;2.45;;;2.05;;
55067;SDS011;40965;52.368;9.712;2023-05-10T11:36:55;3.92;;;2.83;;
55067;SDS011;40965;52.368;9.712;2023-05-10T11:39:26;4.40;;;2.40;;
55067;SDS011;40965;52.368;9.712;2023-05-10T11:41:55;3.95;;;2.78;;
55067;SDS011;40965;52.368;9.712;2023-05-10T11:44:23;2.58;;;2.00;;
55067;SDS011;40965;52.368;9.712;2023-05-10T11:47:02;2.85;;;2.35;;
55067;SDS011;40965;52.368;9.712;2023-05-10T11:49:32;3.05;;;2.70;;
55067;SDS011;40965;52.368;9.712;2023-05-10T11:52:05;3.10;;;2.70;;
55067;SDS011;40965;52.368;9.712;2023-05-10T11:54:35;3.33;;;2.67;;
55067;SDS011;40965;52.368;9.712;2023-05-10T11:57:02;4.95;;;2.88;;
55067;SDS011;40965;52.368;9.712;2023-05-10T11:59:29;3.10;;;2.88;;
55067;SDS011;40965;52.368;9.712;2023-05-10T12:01:56;3.65;;;2.80;;
55067;SDS011;40965;52.368;9.712;2023-05-10T12:04:23;5.10;;;3.22;;
55067;SDS011;40965;52.368;9.712;2023-05-10T12:06:49;4.07;;;2.60;;
55067;SDS011;40965;52.368;9.712;2023-05-10T12:09:16;2.90;;;2.70;;
55067;SDS011;40965;52.368;9.712;2023-05-10T12:11:42;2.80;;;2.60;;
55067;SDS011;40965;52.368;9.712;2023-05-10T12:14:09;3.30;;;3.05;;
55067;SDS011;40965;52.368;9.712;2023-05-10T12:16:36;4.22;;;2.55;;
55067;SDS011;40965;52.368;9.712;2023-05-10T12:49:35;5.70;;;3.42;;
55067;SDS011;40965;52.368;9.712;2023-05-10T12:52:02;6.80;;;3.75;;
55067;SDS011;40965;52.368;9.712;2023-05-10T12:54:29;3.08;;;2.88;;
55067;SDS011;40965;52.368;9.712;2023-05-10T12:56:55;3.55;;;3.17;;
55067;SDS011;40965;52.368;9.712;2023-05-10T12:59:22;2.97;;;2.78;;
55067;SDS011;40965;52.368;9.712;2023-05-10T13:01:49;5.18;;;3.75;;
55067;SDS011;40965;52.368;9.712;2023-05-10T13:04:16;3.15;;;2.63;;
55067;SDS011;40965;52.368;9.712;2023-05-10T13:06:42;3.10;;;2.90;;
55067;SDS011;40965;52.368;9.712;2023-05-10T13:09:09;4.18;;;2.85;;
55067;SDS011;40965;52.368;9.712;2023-05-10T13:11:36;3.28;;;2.97;;
55067;SDS011;40965;52.368;9.712;2023-05-10T13:14:03;4.07;;;2.83;;
55067;SDS011;40965;52.368;9.712;2023-05-10T13:16:29;3.80;;;3.50;;
55067;SDS011;40965;52.368;9.712;2023-05-10T13:18:56;5.38;;;3.38;;
55067;SDS011;40965;52.368;9.712;2023-05-10T13:21:23;4.97;;;3.42;;
55067;SDS011;40965;52.368;9.712;2023-05-10T13:24:03;4.15;;;3.80;;
55067;SDS011;40965;52.368;9.712;2023-05-10T13:26:50;4.72;;;2.42;;
55067;SDS011;40965;52.368;9.712;2023-05-10T13:29:35;4.65;;;3.08;;
55067;SDS011;40965;52.368;9.712;2023-05-10T13:32:02;4.78;;;3.25;;
55067;SDS011;40965;52.368;9.712;2023-05-10T13:34:28;3.45;;;3.10;;
55067;SDS011;40965;52.368;9.712;2023-05-10T13:36:55;3.45;;;3.15;;
55067;SDS011;40965;52.368;9.712;2023-05-10T13:39:22;3.80;;;3.50;;
55067;SDS011;40965;52.368;9.712;2023-05-10T13:41:48;3.38;;;3.17;;
55067;SDS011;40965;52.368;9.712;2023-05-10T13:44:19;3.67;;;3.08;;
55067;SDS011;40965;52.368;9.712;2023-05-10T13:50:39;2.92;;;2.72;;
55067;SDS011;40965;52.368;9.712;2023-05-10T13:53:06;5.47;;;2.90;;
55067;SDS011;40965;52.368;9.712;2023-05-10T13:55:32;4.20;;;2.55;;
55067;SDS011;40965;52.368;9.712;2023-05-10T14:01:05;3.22;;;2.92;;
55067;SDS011;40965;52.368;9.712;2023-05-10T14:07:14;3.97;;;2.73;;
55067;SDS011;40965;52.368;9.712;2023-05-10T14:09:41;4.20;;;2.78;;
55067;SDS011;40965;52.368;9.712;2023-05-10T14:15:44;6.57;;;5.38;;
55067;SDS011;40965;52.368;9.712;2023-05-10T17:08:07;25.00;;;14.18;;
55067;SDS011;40965;52.368;9.712;2023-05-10T17:10:53;20.33;;;13.27;;
55067;SDS011;40965;52.368;9.712;2023-05-10T17:13:20;20.35;;;12.95;;
55067;SDS011;40965;52.368;9.712;2023-05-10T17:15:47;23.23;;;13.68;;
55067;SDS011;40965;52.368;9.712;2023-05-10T17:57:12;18.08;;;12.18;;
55067;SDS011;40965;52.368;9.712;2023-05-10T17:59:59;19.88;;;12.48;;
55067;SDS011;40965;52.368;9.712;2023-05-10T18:05:59;14.23;;;9.52;;
55067;SDS011;40965;52.368;9.712;2023-05-10T18:08:46;21.55;;;14.18;;
55067;SDS011;40965;52.368;9.712;2023-05-10T18:20:34;15.25;;;11.00;;
55067;SDS011;40965;52.368;9.712;2023-05-10T18:23:01;17.90;;;11.15;;
55067;SDS011;40965;52.368;9.712;2023-05-10T18:25:34;16.08;;;9.90;;
55067;SDS011;40965;52.368;9.712;2023-05-10T18:28:01;17.98;;;11.85;;
55067;SDS011;40965;52.368;9.712;2023-05-10T18:30:27;15.38;;;11.02;;
55067;SDS011;40965;52.368;9.712;2023-05-10T18:33:18;16.30;;;11.10;;
55067;SDS011;40965;52.368;9.712;2023-05-10T18:35:44;19.30;;;12.27;;
55067;SDS011;40965;52.368;9.712;2023-05-10T18:38:16;15.07;;;9.85;;
55067;SDS011;40965;52.368;9.712;2023-05-10T18:40:47;18.13;;;9.55;;
55067;SDS011;40965;52.368;9.712;2023-05-10T18:43:13;15.68;;;11.18;;
55067;SDS011;40965;52.368;9.712;2023-05-10T18:45:43;15.23;;;10.85;;
55067;SDS011;40965;52.368;9.712;2023-05-10T18:52:17;15.05;;;9.80;;
55067;SDS011;40965;52.368;9.712;2023-05-10T18:55:13;19.50;;;11.38;;
55067;SDS011;40965;52.368;9.712;2023-05-10T18:57:54;13.07;;;9.85;;
55067;SDS011;40965;52.368;9.712;2023-05-10T19:00:31;17.95;;;10.80;;
55067;SDS011;40965;52.368;9.712;2023-05-10T19:03:05;13.35;;;10.88;;
55067;SDS011;40965;52.368;9.712;2023-05-10T19:05:49;17.35;;;11.27;;
55067;SDS011;40965;52.368;9.712;2023-05-10T19:08:21;16.48;;;11.60;;
55067;SDS011;40965;52.368;9.712;2023-05-10T19:10:52;16.65;;;11.27;;
55067;SDS011;40965;52.368;9.712;2023-05-10T19:13:25;14.00;;;10.90;;
55067;SDS011;40965;52.368;9.712;2023-05-10T19:21:33;13.98;;;9.88;;
55067;SDS011;40965;52.368;9.712;2023-05-10T19:24:00;12.23;;;9.02;;
55067;SDS011;40965;52.368;9.712;2023-05-10T19:26:27;11.93;;;8.68;;
55067;SDS011;40965;52.368;9.712;2023-05-10T19:28:54;13.02;;;9.35;;
55067;SDS011;40965;52.368;9.712;2023-05-10T19:31:22;13.57;;;9.15;;
55067;SDS011;40965;52.368;9.712;2023-05-10T19:33:49;12.82;;;9.13;;
55067;SDS011;40965;52.368;9.712;2023-05-10T19:36:21;13.82;;;9.25;;
55067;SDS011;40965;52.368;9.712;2023-05-10T19:38:48;9.05;;;7.30;;
55067;SDS011;40965;52.368;9.712;2023-05-10T19:41:15;8.80;;;7.53;;
55067;SDS011;40965;52.368;9.712;2023-05-10T19:43:42;13.75;;;8.98;;
55067;SDS011;40965;52.368;9.712;2023-05-10T19:46:08;10.10;;;7.88;;
55067;SDS011;40965;52.368;9.712;2023-05-10T19:49:29;10.82;;;7.93;;
55067;SDS011;40965;52.368;9.712;2023-05-10T19:53:01;12.30;;;9.20;;
55067;SDS011;40965;52.368;9.712;2023-05-10T19:59:45;11.38;;;8.27;;
55067;SDS011;40965;52.368;9.712;2023-05-10T20:02:28;11.63;;;7.45;;
55067;SDS011;40965;52.368;9.712;2023-05-10T20:04:56;10.13;;;7.32;;
55067;SDS011;40965;52.368;9.712;2023-05-10T20:07:45;9.15;;;6.82;;
55067;SDS011;40965;52.368;9.712;2023-05-10T20:13:44;8.88;;;7.03;;
55067;SDS011;40965;52.368;9.712;2023-05-10T20:16:18;8.80;;;6.97;;
55067;SDS011;40965;52.368;9.712;2023-05-10T21:55:32;7.50;;;6.18;;
55067;SDS011;40965;52.368;9.712;2023-05-10T21:58:21;4.43;;;4.03;;